Time;durP1;ratioP1;P1;durP2;ratioP2;P2;SDS_P1;SDS_P2;PMS_P1;PMS_P2;Temp;Humidity;BMP_temperature;BMP_pressure;BME280_temperature;BME280_humidity;BME280_pressure;Samples;Min_cycle;Max_cycle;Signal;HPM_P1;HPM_P2
2024/03/23 00:01:20;;;;;;;18.55;3.13;;;;;;;;;;5097070;28;20544;-67
2024/03/23 00:04:07;;;;;;;24.02;4.10;;;;;;;;;;5096939;28;20028;-67
2024/03/23 00:06:54;;;;;;;21.42;4.82;;;;;;;;;;5097259;28;20485;-67
2024/03/23 00:09:42;;;;;;;22.95;4.70;;;;;;;;;;5097104;28;20035;-66
2024/03/23 00:12:29;;;;;;;26.95;4.03;;;;;;;;;;5081728;28;20024;-66
2024/03/23 00:15:16;;;;;;;23.88;3.78;;;;;;;;;;5096369;28;20020;-66
2024/03/23 00:18:02;;;;;;;22.40;3.28;;;;;;;;;;5097039;28;20028;-66
2024/03/23 00:20:51;;;;;;;17.40;3.92;;;;;;;;;;5097162;28;20027;-66
2024/03/23 00:23:37;;;;;;;21.30;4.78;;;;;;;;;;5095963;28;20020;-66
2024/03/23 00:26:25;;;;;;;17.77;3.60;;;;;;;;;;5097417;28;20035;-66
2024/03/23 00:29:12;;;;;;;18.52;3.40;;;;;;;;;;5095366;28;20039;-66
2024/03/23 00:31:58;;;;;;;17.33;3.28;;;;;;;;;;5097031;28;20020;-67
2024/03/23 00:34:45;;;;;;;8.55;3.35;;;;;;;;;;5096739;28;20036;-66
2024/03/23 00:37:32;;;;;;;26.10;5.63;;;;;;;;;;5096946;28;20032;-67
2024/03/23 00:40:18;;;;;;;21.65;3.53;;;;;;;;;;5095733;28;20028;-66
2024/03/23 00:43:05;;;;;;;24.23;3.25;;;;;;;;;;5096510;28;20028;-66
2024/03/23 00:45:52;;;;;;;13.60;2.90;;;;;;;;;;5095944;28;20025;-66
2024/03/23 00:48:38;;;;;;;21.67;3.65;;;;;;;;;;5084454;28;20032;-66
2024/03/23 00:51:25;;;;;;;23.70;3.40;;;;;;;;;;5087006;28;20053;-66
2024/03/23 00:54:11;;;;;;;16.13;3.10;;;;;;;;;;5081729;28;20022;-66
2024/03/23 00:56:56;;;;;;;16.90;3.63;;;;;;;;;;5088905;28;20021;-66
2024/03/23 00:59:42;;;;;;;18.27;3.08;;;;;;;;;;5076824;28;20134;-66
2024/03/23 01:02:27;;;;;;;15.05;2.80;;;;;;;;;;5084409;28;20016;-66
2024/03/23 01:05:13;;;;;;;18.52;3.85;;;;;;;;;;5078662;28;20029;-66
2024/03/23 01:07:59;;;;;;;20.02;4.10;;;;;;;;;;5087593;28;20027;-66
2024/03/23 01:10:57;;;;;;;25.83;3.40;;;;;;;;;;5086208;28;20020;-66
2024/03/23 01:13:42;;;;;;;27.17;3.92;;;;;;;;;;5080577;28;20020;-66
2024/03/23 01:16:28;;;;;;;21.05;3.80;;;;;;;;;;5081764;28;20089;-66
2024/03/23 01:19:13;;;;;;;18.27;3.05;;;;;;;;;;5093346;28;20016;-66
2024/03/23 01:21:59;;;;;;;22.10;3.70;;;;;;;;;;5075463;28;20560;-66
2024/03/23 01:24:45;;;;;;;24.42;4.60;;;;;;;;;;5087453;28;20028;-66
2024/03/23 01:27:30;;;;;;;19.77;4.45;;;;;;;;;;5087442;28;20105;-66
2024/03/23 01:30:16;;;;;;;16.05;3.33;;;;;;;;;;5078416;28;20119;-66
2024/03/23 01:33:02;;;;;;;14.93;2.63;;;;;;;;;;5073772;28;20077;-66
2024/03/23 01:35:48;;;;;;;19.83;3.38;;;;;;;;;;5065020;28;20486;-66
2024/03/23 01:38:34;;;;;;;9.88;2.88;;;;;;;;;;5088270;28;20439;-66
2024/03/23 01:41:20;;;;;;;20.38;3.85;;;;;;;;;;5063916;28;20036;-66
2024/03/23 01:44:08;;;;;;;23.08;3.03;;;;;;;;;;5078125;28;20059;-66
2024/03/23 01:46:54;;;;;;;24.92;4.15;;;;;;;;;;5089425;28;20073;-66
2024/03/23 01:49:40;;;;;;;20.40;3.30;;;;;;;;;;5076223;28;20055;-66
2024/03/23 01:52:30;;;;;;;24.38;3.42;;;;;;;;;;5093459;28;20044;-66
2024/03/23 01:55:16;;;;;;;27.58;4.75;;;;;;;;;;5059654;28;20029;-66
2024/03/23 01:58:01;;;;;;;26.75;3.70;;;;;;;;;;5087560;28;20116;-66
2024/03/23 02:00:47;;;;;;;24.05;4.43;;;;;;;;;;5093511;28;20028;-66
2024/03/23 02:03:33;;;;;;;23.35;4.80;;;;;;;;;;5093898;28;20028;-66
2024/03/23 02:06:18;;;;;;;15.55;3.00;;;;;;;;;;5093477;28;20020;-66
2024/03/23 02:09:05;;;;;;;25.50;4.60;;;;;;;;;;5093831;28;20026;-66
2024/03/23 02:11:51;;;;;;;19.10;3.67;;;;;;;;;;5081299;28;20543;-66
2024/03/23 02:14:36;;;;;;;27.40;5.10;;;;;;;;;;5076621;28;21878;-66
2024/03/23 02:17:22;;;;;;;25.17;3.83;;;;;;;;;;5090433;28;20031;-66
2024/03/23 02:20:08;;;;;;;15.43;3.95;;;;;;;;;;5078039;28;20398;-66
2024/03/23 02:22:54;;;;;;;19.17;4.30;;;;;;;;;;5076291;28;20020;-66
2024/03/23 02:25:39;;;;;;;19.83;3.92;;;;;;;;;;5093711;28;20081;-66
2024/03/23 02:28:25;;;;;;;16.52;2.97;;;;;;;;;;5076114;28;20112;-66
2024/03/23 02:31:11;;;;;;;17.33;3.33;;;;;;;;;;5075088;28;20429;-66
2024/03/23 02:33:56;;;;;;;18.48;3.42;;;;;;;;;;5085925;28;20025;-66
2024/03/23 02:36:42;;;;;;;13.48;3.40;;;;;;;;;;5073822;28;20501;-66
2024/03/23 02:39:28;;;;;;;19.90;3.40;;;;;;;;;;5072654;28;20028;-66
2024/03/23 02:42:13;;;;;;;13.85;3.80;;;;;;;;;;5073206;28;20025;-66
2024/03/23 02:44:59;;;;;;;18.95;3.13;;;;;;;;;;5090888;28;20020;-66
2024/03/23 02:47:45;;;;;;;16.80;3.00;;;;;;;;;;5093346;28;20138;-66
2024/03/23 02:50:30;;;;;;;12.00;3.30;;;;;;;;;;5093108;28;20477;-66
2024/03/23 02:53:17;;;;;;;17.65;2.65;;;;;;;;;;5092902;28;20040;-66
2024/03/23 02:56:03;;;;;;;10.63;3.33;;;;;;;;;;5092022;28;20443;-66
2024/03/23 02:58:48;;;;;;;15.38;3.55;;;;;;;;;;5092657;28;20024;-66
2024/03/23 03:01:34;;;;;;;18.95;2.83;;;;;;;;;;5092199;28;20089;-66
2024/03/23 03:04:20;;;;;;;24.13;3.65;;;;;;;;;;5092595;28;20077;-66
2024/03/23 03:07:05;;;;;;;17.85;3.03;;;;;;;;;;5092339;28;20491;-66
2024/03/23 03:09:51;;;;;;;10.55;3.10;;;;;;;;;;5091890;28;20089;-67
2024/03/23 03:12:37;;;;;;;21.23;3.30;;;;;;;;;;5092605;28;20073;-66
2024/03/23 03:15:23;;;;;;;14.63;2.72;;;;;;;;;;5092249;28;20028;-66
2024/03/23 03:18:09;;;;;;;19.42;3.75;;;;;;;;;;5091739;28;20027;-66
2024/03/23 03:20:55;;;;;;;11.85;2.60;;;;;;;;;;5092506;28;20107;-66
2024/03/23 03:23:40;;;;;;;15.55;2.78;;;;;;;;;;5091473;28;20110;-66
2024/03/23 03:26:26;;;;;;;21.13;3.05;;;;;;;;;;5092174;28;20070;-66
2024/03/23 03:29:12;;;;;;;22.02;3.53;;;;;;;;;;5091953;28;20061;-65
2024/03/23 03:31:57;;;;;;;13.27;4.55;;;;;;;;;;5092565;28;20393;-66
2024/03/23 03:34:43;;;;;;;13.80;2.85;;;;;;;;;;5092453;28;20069;-66
2024/03/23 03:37:29;;;;;;;17.42;2.95;;;;;;;;;;5092129;28;20060;-66
2024/03/23 03:40:14;;;;;;;21.95;3.58;;;;;;;;;;5091250;28;20039;-66
2024/03/23 03:43:00;;;;;;;18.63;2.83;;;;;;;;;;5092574;28;20024;-66
2024/03/23 03:45:57;;;;;;;12.98;3.75;;;;;;;;;;5092199;28;20052;-66
2024/03/23 03:48:44;;;;;;;11.77;3.28;;;;;;;;;;5092522;28;20489;-66
2024/03/23 03:51:30;;;;;;;17.20;3.00;;;;;;;;;;5091687;28;20028;-66
2024/03/23 03:54:16;;;;;;;16.58;3.42;;;;;;;;;;5092277;28;20028;-66
2024/03/23 03:57:01;;;;;;;21.48;3.42;;;;;;;;;;5091519;28;20035;-66
2024/03/23 03:59:47;;;;;;;18.60;3.53;;;;;;;;;;5077336;28;20024;-66
2024/03/23 04:02:33;;;;;;;18.77;3.50;;;;;;;;;;5092850;28;20066;-66
2024/03/23 04:05:19;;;;;;;26.05;3.35;;;;;;;;;;5091525;28;20024;-66
2024/03/23 04:08:07;;;;;;;17.63;2.97;;;;;;;;;;5091869;28;20020;-66
2024/03/23 04:10:52;;;;;;;19.42;2.97;;;;;;;;;;5091871;28;20028;-66
2024/03/23 04:13:41;;;;;;;11.60;3.17;;;;;;;;;;5084800;28;20070;-66
2024/03/23 04:16:34;;;;;;;16.63;3.03;;;;;;;;;;5074295;28;20160;-66
2024/03/23 04:19:20;;;;;;;19.73;4.32;;;;;;;;;;5090589;28;20016;-66
2024/03/23 04:22:05;;;;;;;12.95;3.58;;;;;;;;;;5091330;28;20023;-66
2024/03/23 04:24:54;;;;;;;27.58;4.88;;;;;;;;;;5091197;28;20194;-66
2024/03/23 04:27:41;;;;;;;22.33;3.42;;;;;;;;;;5090857;28;20043;-66
2024/03/23 04:30:29;;;;;;;19.77;3.45;;;;;;;;;;5079149;28;20021;-66
2024/03/23 04:33:14;;;;;;;15.60;3.53;;;;;;;;;;5070697;28;20486;-66
2024/03/23 04:36:00;;;;;;;24.90;3.78;;;;;;;;;;5074645;28;20462;-66
2024/03/23 04:38:46;;;;;;;16.98;3.72;;;;;;;;;;5076395;28;20052;-66
2024/03/23 04:41:31;;;;;;;18.45;4.30;;;;;;;;;;5075368;28;20028;-66
2024/03/23 04:44:17;;;;;;;24.58;3.47;;;;;;;;;;5080929;28;20085;-66
2024/03/23 04:47:03;;;;;;;13.45;2.83;;;;;;;;;;5075437;28;20027;-66
2024/03/23 04:49:49;;;;;;;14.85;3.75;;;;;;;;;;5093475;28;20397;-66
2024/03/23 04:52:34;;;;;;;13.10;4.55;;;;;;;;;;5094640;28;20016;-66
2024/03/23 04:55:22;;;;;;;13.73;3.80;;;;;;;;;;5082570;28;20032;-66
2024/03/23 04:58:08;;;;;;;24.58;3.92;;;;;;;;;;5075009;28;20032;-66
2024/03/23 05:00:57;;;;;;;14.80;3.78;;;;;;;;;;5074800;28;20081;-66
2024/03/23 05:03:42;;;;;;;15.32;2.90;;;;;;;;;;5074640;28;20031;-66
2024/03/23 05:06:28;;;;;;;18.30;4.30;;;;;;;;;;5088437;28;20394;-66
2024/03/23 05:09:14;;;;;;;18.45;3.70;;;;;;;;;;5079576;28;20019;-66
2024/03/23 05:12:00;;;;;;;19.73;3.38;;;;;;;;;;5093903;28;20058;-66
2024/03/23 05:14:46;;;;;;;23.35;4.60;;;;;;;;;;5095109;28;20020;-66
2024/03/23 05:17:32;;;;;;;16.33;3.97;;;;;;;;;;5094642;28;20016;-66
2024/03/23 05:20:19;;;;;;;28.55;5.43;;;;;;;;;;5073044;28;20417;-66
2024/03/23 05:23:04;;;;;;;19.55;3.97;;;;;;;;;;5073649;28;20031;-66
2024/03/23 05:25:51;;;;;;;13.48;3.58;;;;;;;;;;5073801;28;20020;-66
2024/03/23 05:28:37;;;;;;;28.70;4.18;;;;;;;;;;5074109;28;20024;-66
2024/03/23 05:31:27;;;;;;;18.67;2.60;;;;;;;;;;5059754;28;20028;-66
2024/03/23 05:34:13;;;;;;;14.25;4.18;;;;;;;;;;5073028;28;20024;-66
2024/03/23 05:36:59;;;;;;;17.02;3.35;;;;;;;;;;5090579;28;20028;-66
2024/03/23 05:39:44;;;;;;;18.55;3.55;;;;;;;;;;5148063;22;20075;-67
2024/03/23 05:42:30;;;;;;;20.92;3.60;;;;;;;;;;5079360;28;20054;-67
2024/03/23 05:45:18;;;;;;;15.27;3.65;;;;;;;;;;5112835;28;20058;-67
2024/03/23 05:48:04;;;;;;;17.30;4.07;;;;;;;;;;5113746;28;20116;-67
2024/03/23 05:50:50;;;;;;;12.13;3.40;;;;;;;;;;5114644;28;20023;-67
2024/03/23 05:53:36;;;;;;;23.83;4.70;;;;;;;;;;5113352;28;20055;-66
2024/03/23 05:56:21;;;;;;;16.42;3.60;;;;;;;;;;5114767;28;20019;-67
2024/03/23 05:59:07;;;;;;;18.35;3.97;;;;;;;;;;5113585;28;20096;-67
2024/03/23 06:01:53;;;;;;;14.25;5.00;;;;;;;;;;5114112;28;20076;-67
2024/03/23 06:04:38;;;;;;;13.82;3.63;;;;;;;;;;5098539;28;20024;-67
2024/03/23 06:07:24;;;;;;;18.83;3.13;;;;;;;;;;5113890;28;20026;-67
2024/03/23 06:10:10;;;;;;;15.45;3.15;;;;;;;;;;5112987;28;20485;-66
2024/03/23 06:12:55;;;;;;;15.70;3.30;;;;;;;;;;5099847;28;20532;-67
2024/03/23 06:15:42;;;;;;;24.00;5.88;;;;;;;;;;5113651;28;20400;-67
2024/03/23 06:18:27;;;;;;;14.32;3.47;;;;;;;;;;5113758;28;20023;-67
2024/03/23 06:21:14;;;;;;;16.35;3.25;;;;;;;;;;5113562;28;20031;-67
2024/03/23 06:23:59;;;;;;;14.18;3.33;;;;;;;;;;5098824;28;20049;-67
2024/03/23 06:26:45;;;;;;;25.08;4.50;;;;;;;;;;5112719;28;20039;-67
2024/03/23 06:29:31;;;;;;;15.43;3.33;;;;;;;;;;5114064;28;20122;-67
2024/03/23 06:32:17;;;;;;;25.95;3.60;;;;;;;;;;5114701;28;20484;-67
2024/03/23 06:35:08;;;;;;;22.30;4.03;;;;;;;;;;5114725;28;20397;-67
2024/03/23 06:37:53;;;;;;;21.52;4.72;;;;;;;;;;5101046;28;20046;-67
2024/03/23 06:40:39;;;;;;;29.95;3.60;;;;;;;;;;5112882;28;20043;-67
2024/03/23 06:43:24;;;;;;;27.20;3.67;;;;;;;;;;5112985;28;20055;-67
2024/03/23 06:46:10;;;;;;;16.45;2.90;;;;;;;;;;5113329;28;20026;-67
2024/03/23 06:48:56;;;;;;;14.20;2.78;;;;;;;;;;5113701;28;20489;-67
2024/03/23 06:51:41;;;;;;;9.27;3.00;;;;;;;;;;5113017;28;20393;-67
2024/03/23 06:54:27;;;;;;;7.88;2.95;;;;;;;;;;5112761;28;20016;-67
2024/03/23 06:57:13;;;;;;;12.23;2.80;;;;;;;;;;5113302;28;20062;-67
2024/03/23 06:59:59;;;;;;;3.60;1.42;;;;;;;;;;5112121;28;20116;-67
2024/03/23 07:02:44;;;;;;;4.72;2.10;;;;;;;;;;5112865;28;20485;-67
2024/03/23 07:05:30;;;;;;;5.13;2.00;;;;;;;;;;5112226;28;20107;-67
2024/03/23 07:08:21;;;;;;;6.38;1.92;;;;;;;;;;5112587;28;20507;-67
2024/03/23 07:11:06;;;;;;;4.63;2.25;;;;;;;;;;5112454;28;20503;-67
2024/03/23 07:13:56;;;;;;;13.75;2.72;;;;;;;;;;5112564;28;20024;-67
2024/03/23 07:16:42;;;;;;;8.02;2.10;;;;;;;;;;5098025;28;20055;-67
2024/03/23 07:19:28;;;;;;;8.85;2.00;;;;;;;;;;5112224;28;20023;-67
2024/03/23 07:22:14;;;;;;;6.72;2.25;;;;;;;;;;5097940;28;20457;-67
2024/03/23 07:25:00;;;;;;;9.15;2.28;;;;;;;;;;5113569;28;20085;-67
2024/03/23 07:27:46;;;;;;;7.22;2.33;;;;;;;;;;5111592;28;20073;-67
2024/03/23 07:30:32;;;;;;;13.18;2.75;;;;;;;;;;5112095;28;20422;-67
2024/03/23 07:33:17;;;;;;;5.13;2.03;;;;;;;;;;5097373;28;20023;-66
2024/03/23 07:36:04;;;;;;;8.60;2.95;;;;;;;;;;5111705;28;20392;-67
2024/03/23 07:38:50;;;;;;;3.60;1.80;;;;;;;;;;5099136;28;20035;-66
2024/03/23 07:41:35;;;;;;;8.93;2.40;;;;;;;;;;5113829;28;20404;-66
2024/03/23 07:44:21;;;;;;;12.73;2.90;;;;;;;;;;5111048;28;20469;-66
2024/03/23 07:47:07;;;;;;;12.48;3.10;;;;;;;;;;5112892;28;20034;-66
2024/03/23 07:49:52;;;;;;;9.80;2.72;;;;;;;;;;5113073;28;20015;-66
2024/03/23 07:52:38;;;;;;;13.98;2.40;;;;;;;;;;5112919;28;20016;-67
2024/03/23 07:55:23;;;;;;;15.63;2.72;;;;;;;;;;5111605;28;20020;-65
2024/03/23 07:58:09;;;;;;;11.88;2.22;;;;;;;;;;5112619;28;20488;-67
2024/03/23 08:00:56;;;;;;;12.52;2.55;;;;;;;;;;5111589;28;20077;-66
2024/03/23 08:03:43;;;;;;;8.80;2.30;;;;;;;;;;5097665;28;20491;-67
2024/03/23 08:06:28;;;;;;;10.45;3.08;;;;;;;;;;5097355;28;20031;-67
2024/03/23 08:09:14;;;;;;;11.82;2.22;;;;;;;;;;5111221;28;20526;-68
2024/03/23 08:11:59;;;;;;;16.27;2.92;;;;;;;;;;5115548;28;20055;-67
2024/03/23 08:14:45;;;;;;;11.60;2.85;;;;;;;;;;5115859;28;20015;-67
2024/03/23 08:17:31;;;;;;;12.98;2.65;;;;;;;;;;5115778;28;20015;-67
2024/03/23 08:20:16;;;;;;;9.68;2.72;;;;;;;;;;5115061;28;20027;-67
2024/03/23 08:23:02;;;;;;;15.05;2.90;;;;;;;;;;5101377;28;20031;-67
2024/03/23 08:25:48;;;;;;;16.48;3.22;;;;;;;;;;5116409;28;20016;-67
2024/03/23 08:28:33;;;;;;;14.00;2.72;;;;;;;;;;5115756;28;20024;-67
2024/03/23 08:31:19;;;;;;;11.15;2.33;;;;;;;;;;5114825;28;20047;-65
2024/03/23 08:34:04;;;;;;;10.00;2.70;;;;;;;;;;5115374;28;20051;-66
2024/03/23 08:36:50;;;;;;;15.05;2.38;;;;;;;;;;5115402;28;20020;-67
2024/03/23 08:39:36;;;;;;;11.05;2.95;;;;;;;;;;5115182;28;20027;-66
2024/03/23 08:42:22;;;;;;;15.93;3.42;;;;;;;;;;5115177;28;20076;-66
2024/03/23 08:45:08;;;;;;;12.32;2.03;;;;;;;;;;5114623;28;20028;-66
2024/03/23 08:47:53;;;;;;;15.63;2.35;;;;;;;;;;5115271;28;20042;-66
2024/03/23 08:50:39;;;;;;;5.03;1.70;;;;;;;;;;5115000;28;20441;-66
2024/03/23 08:53:27;;;;;;;14.55;2.70;;;;;;;;;;5101304;28;20083;-65
2024/03/23 08:56:12;;;;;;;8.07;2.10;;;;;;;;;;5093861;28;20039;-68
2024/03/23 08:58:58;;;;;;;13.10;2.35;;;;;;;;;;5100335;28;20020;-68
2024/03/23 09:01:43;;;;;;;17.88;3.42;;;;;;;;;;5100249;28;20023;-68
2024/03/23 09:04:29;;;;;;;9.30;2.35;;;;;;;;;;5108143;28;20012;-68
2024/03/23 09:07:15;;;;;;;4.50;1.73;;;;;;;;;;5087249;28;20021;-68
2024/03/23 09:10:00;;;;;;;12.10;2.97;;;;;;;;;;5074814;28;20039;-68
2024/03/23 09:12:46;;;;;;;13.50;2.42;;;;;;;;;;5075311;28;20021;-66
2024/03/23 09:15:37;;;;;;;14.55;2.92;;;;;;;;;;5074833;28;20028;-65
2024/03/23 09:18:23;;;;;;;13.40;3.05;;;;;;;;;;5072564;28;20032;-66
2024/03/23 09:21:13;;;;;;;13.30;3.22;;;;;;;;;;5074176;28;20028;-65
2024/03/23 09:23:59;;;;;;;12.82;2.67;;;;;;;;;;5088684;28;20108;-66
2024/03/23 09:26:45;;;;;;;14.45;2.85;;;;;;;;;;5093676;28;20031;-65
2024/03/23 09:29:30;;;;;;;8.02;2.35;;;;;;;;;;5093649;28;20020;-66
2024/03/23 09:32:16;;;;;;;13.57;2.60;;;;;;;;;;5093157;28;20032;-66
2024/03/23 09:35:01;;;;;;;18.85;2.75;;;;;;;;;;5079890;28;20445;-66
2024/03/23 09:37:48;;;;;;;10.50;2.63;;;;;;;;;;5095275;28;20055;-66
2024/03/23 09:40:33;;;;;;;15.82;2.63;;;;;;;;;;5108123;28;20015;-65
2024/03/23 09:43:19;;;;;;;12.57;2.55;;;;;;;;;;5113143;28;20562;-65
2024/03/23 09:46:05;;;;;;;8.27;2.47;;;;;;;;;;5114896;28;20034;-66
2024/03/23 09:48:51;;;;;;;4.03;1.77;;;;;;;;;;5114594;28;20020;-67
2024/03/23 09:51:37;;;;;;;6.20;2.50;;;;;;;;;;5112979;28;20405;-68
2024/03/23 09:54:22;;;;;;;15.15;2.70;;;;;;;;;;5098930;28;20016;-68
2024/03/23 09:57:08;;;;;;;19.13;2.83;;;;;;;;;;5092981;28;20020;-68
2024/03/23 09:59:54;;;;;;;7.03;1.95;;;;;;;;;;5093852;28;20020;-66
2024/03/23 10:02:40;;;;;;;4.28;1.45;;;;;;;;;;5094231;28;20112;-67
2024/03/23 10:05:27;;;;;;;8.77;2.42;;;;;;;;;;5093543;28;20060;-67
2024/03/23 10:08:13;;;;;;;36.22;12.25;;;;;;;;;;5078769;28;20078;-67
2024/03/23 10:11:12;;;;;;;10.27;2.90;;;;;;;;;;5093948;28;20024;-67
2024/03/23 10:13:58;;;;;;;13.23;3.25;;;;;;;;;;5093862;28;20020;-67
2024/03/23 10:16:43;;;;;;;9.50;2.50;;;;;;;;;;5094581;28;20020;-67
2024/03/23 10:19:32;;;;;;;8.85;2.10;;;;;;;;;;5092073;28;20074;-66
2024/03/23 10:22:18;;;;;;;7.63;2.35;;;;;;;;;;5092472;28;20074;-67
2024/03/23 10:25:08;;;;;;;7.75;2.08;;;;;;;;;;5093776;28;20032;-67
2024/03/23 10:28:03;;;;;;;10.30;1.98;;;;;;;;;;5078053;28;20031;-66
2024/03/23 10:30:49;;;;;;;19.05;3.42;;;;;;;;;;5078952;28;20024;-67
2024/03/23 10:33:35;;;;;;;10.52;3.17;;;;;;;;;;5092930;28;20016;-67
2024/03/23 10:36:21;;;;;;;15.57;2.75;;;;;;;;;;5093755;28;20485;-67
2024/03/23 10:39:07;;;;;;;10.02;2.30;;;;;;;;;;5077607;28;20066;-67
2024/03/23 10:41:56;;;;;;;7.65;1.85;;;;;;;;;;5093679;28;20078;-67
2024/03/23 10:44:41;;;;;;;15.57;2.55;;;;;;;;;;5092056;28;20027;-65
2024/03/23 10:47:27;;;;;;;6.32;2.00;;;;;;;;;;5093523;28;20474;-65
2024/03/23 10:50:13;;;;;;;10.45;2.65;;;;;;;;;;5092304;28;20035;-68
2024/03/23 10:52:59;;;;;;;16.15;3.30;;;;;;;;;;5092564;28;20020;-68
2024/03/23 10:55:45;;;;;;;5.88;1.70;;;;;;;;;;5077862;28;20092;-65
2024/03/23 10:58:46;;;;;;;8.10;1.92;;;;;;;;;;5092251;28;20024;-65
2024/03/23 11:01:32;;;;;;;9.27;2.35;;;;;;;;;;5076875;28;20020;-65
2024/03/23 11:04:32;;;;;;;11.70;2.38;;;;;;;;;;5092394;28;20113;-67
2024/03/23 11:07:24;;;;;;;9.25;1.48;;;;;;;;;;5092624;28;20076;-66
2024/03/23 11:10:25;;;;;;;7.95;2.85;;;;;;;;;;5095851;28;20480;-68
2024/03/23 11:13:23;;;;;;;10.90;2.38;;;;;;;;;;5098018;28;20020;-67
2024/03/23 11:16:30;;;;;;;12.68;3.13;;;;;;;;;;5112790;28;20076;-65
2024/03/23 11:19:36;;;;;;;11.48;2.33;;;;;;;;;;5097774;28;20498;-68
2024/03/23 11:22:41;;;;;;;21.60;2.53;;;;;;;;;;5112473;28;20027;-67
2024/03/23 11:25:27;;;;;;;8.32;2.45;;;;;;;;;;5099067;28;20508;-67
2024/03/23 11:28:14;;;;;;;8.43;2.53;;;;;;;;;;5113070;28;20469;-67
2024/03/23 11:31:00;;;;;;;12.88;2.55;;;;;;;;;;5111767;28;20023;-67
2024/03/23 11:33:45;;;;;;;10.60;2.55;;;;;;;;;;5111998;28;20515;-67
2024/03/23 11:36:32;;;;;;;8.90;1.95;;;;;;;;;;5112432;28;20038;-67
2024/03/23 11:39:19;;;;;;;10.65;2.58;;;;;;;;;;5097613;28;20451;-68
2024/03/23 11:42:04;;;;;;;10.35;3.53;;;;;;;;;;5098117;28;20544;-68
2024/03/23 11:44:50;;;;;;;8.10;2.03;;;;;;;;;;5112437;28;20027;-68
2024/03/23 11:47:36;;;;;;;7.22;2.47;;;;;;;;;;5111457;28;20089;-67
2024/03/23 11:50:21;;;;;;;4.15;1.33;;;;;;;;;;5097433;28;20016;-68
2024/03/23 11:53:08;;;;;;;6.10;1.80;;;;;;;;;;5111970;28;20107;-69
2024/03/23 11:55:59;;;;;;;2.38;1.52;;;;;;;;;;5096546;28;20404;-67
2024/03/23 11:58:48;;;;;;;5.78;1.35;;;;;;;;;;5097126;28;20028;-67
2024/03/23 12:01:34;;;;;;;8.35;2.30;;;;;;;;;;5112044;28;20030;-68
2024/03/23 12:04:29;;;;;;;7.10;1.85;;;;;;;;;;5110827;28;20027;-68
2024/03/23 12:07:20;;;;;;;5.82;1.60;;;;;;;;;;5096454;28;20038;-69
2024/03/23 12:10:06;;;;;;;7.15;1.73;;;;;;;;;;5111746;28;20084;-67
2024/03/23 12:13:02;;;;;;;8.98;2.28;;;;;;;;;;5111857;28;20020;-68
2024/03/23 12:15:50;;;;;;;8.02;1.70;;;;;;;;;;5112243;28;20072;-68
2024/03/23 12:18:36;;;;;;;15.35;2.28;;;;;;;;;;5096124;28;20542;-68
2024/03/23 12:21:22;;;;;;;9.82;2.60;;;;;;;;;;5097503;28;20032;-68
2024/03/23 12:24:08;;;;;;;10.95;1.70;;;;;;;;;;5111803;28;20019;-68
2024/03/23 12:26:55;;;;;;;6.65;2.13;;;;;;;;;;5111696;28;20023;-68
2024/03/23 12:29:47;;;;;;;8.30;1.70;;;;;;;;;;5111104;28;20066;-68
2024/03/23 12:32:33;;;;;;;8.77;1.88;;;;;;;;;;5112380;28;20023;-68
2024/03/23 12:35:18;;;;;;;16.63;2.17;;;;;;;;;;5111701;28;20030;-68
2024/03/23 12:38:04;;;;;;;6.32;2.22;;;;;;;;;;5112027;28;20415;-67
2024/03/23 12:40:50;;;;;;;6.25;1.52;;;;;;;;;;5111745;28;20027;-68
2024/03/23 12:43:37;;;;;;;6.38;1.95;;;;;;;;;;5098009;28;20536;-68
2024/03/23 12:46:23;;;;;;;12.73;2.05;;;;;;;;;;5111525;28;20024;-68
2024/03/23 12:49:08;;;;;;;12.07;2.20;;;;;;;;;;5096292;28;20102;-67
2024/03/23 12:51:55;;;;;;;11.55;3.60;;;;;;;;;;5111872;28;20377;-68
2024/03/23 12:54:41;;;;;;;8.43;2.00;;;;;;;;;;5097622;28;20027;-67
2024/03/23 12:57:26;;;;;;;9.57;2.38;;;;;;;;;;5098967;28;20028;-68
2024/03/23 13:00:13;;;;;;;10.52;2.15;;;;;;;;;;5115859;28;20015;-68
2024/03/23 13:02:58;;;;;;;11.27;1.95;;;;;;;;;;5100053;28;20508;-68
2024/03/23 13:05:51;;;;;;;13.13;2.33;;;;;;;;;;5115222;28;20468;-68
2024/03/23 13:08:37;;;;;;;9.85;2.30;;;;;;;;;;5101439;28;20097;-68
2024/03/23 13:11:23;;;;;;;12.43;3.13;;;;;;;;;;5114884;28;20172;-68
2024/03/23 13:14:09;;;;;;;5.82;1.83;;;;;;;;;;5100498;28;20070;-68
2024/03/23 13:16:54;;;;;;;13.07;2.40;;;;;;;;;;5115064;28;20058;-68
2024/03/23 13:19:40;;;;;;;13.55;1.88;;;;;;;;;;5115208;28;20110;-68
2024/03/23 13:22:26;;;;;;;7.25;2.17;;;;;;;;;;5110451;28;20044;-68
2024/03/23 13:25:12;;;;;;;4.82;1.83;;;;;;;;;;5087012;28;20064;-68
2024/03/23 13:27:58;;;;;;;4.78;1.80;;;;;;;;;;5083121;28;20030;-67
2024/03/23 13:30:53;;;;;;;11.02;2.78;;;;;;;;;;5095400;28;20020;-68
2024/03/23 13:33:39;;;;;;;15.38;2.22;;;;;;;;;;5102257;28;20103;-68
2024/03/23 13:36:25;;;;;;;11.43;2.05;;;;;;;;;;5093505;28;20028;-68
2024/03/23 13:39:11;;;;;;;17.35;2.53;;;;;;;;;;5080056;28;20064;-68
2024/03/23 13:41:57;;;;;;;9.98;2.10;;;;;;;;;;5094369;28;20024;-68
2024/03/23 13:44:43;;;;;;;6.63;2.70;;;;;;;;;;5094167;28;20347;-68
2024/03/23 13:47:29;;;;;;;14.80;2.30;;;;;;;;;;5080293;28;20022;-68
2024/03/23 13:50:14;;;;;;;9.55;1.77;;;;;;;;;;5094769;28;20016;-68
2024/03/23 13:53:00;;;;;;;3.58;1.90;;;;;;;;;;5074266;28;20390;-68
2024/03/23 13:55:48;;;;;;;11.77;2.17;;;;;;;;;;5045610;28;20025;-68
2024/03/23 13:58:33;;;;;;;6.70;2.47;;;;;;;;;;5072851;28;20406;-68
2024/03/23 14:01:19;;;;;;;8.15;1.58;;;;;;;;;;5073700;28;20016;-68
2024/03/23 14:04:05;;;;;;;10.27;2.97;;;;;;;;;;5073392;28;20070;-68
2024/03/23 14:06:50;;;;;;;6.20;2.03;;;;;;;;;;5074108;28;20021;-68
2024/03/23 14:09:36;;;;;;;6.78;1.98;;;;;;;;;;5074345;28;20043;-68
2024/03/23 14:12:23;;;;;;;14.98;2.28;;;;;;;;;;5081418;28;20020;-68
2024/03/23 14:15:09;;;;;;;8.60;2.08;;;;;;;;;;5058927;28;20028;-68
2024/03/23 14:17:54;;;;;;;5.80;2.65;;;;;;;;;;5073666;28;20405;-68
2024/03/23 14:20:40;;;;;;;17.17;2.35;;;;;;;;;;5074238;28;20469;-68
2024/03/23 14:23:32;;;;;;;10.02;1.90;;;;;;;;;;5076534;28;20031;-68
2024/03/23 14:26:18;;;;;;;8.13;1.95;;;;;;;;;;5057927;28;20035;-68
2024/03/23 14:29:04;;;;;;;11.55;3.92;;;;;;;;;;5073097;28;20021;-68
2024/03/23 14:31:49;;;;;;;8.63;2.10;;;;;;;;;;5071893;28;20504;-68
2024/03/23 14:34:36;;;;;;;13.70;2.38;;;;;;;;;;5072569;28;20042;-68
2024/03/23 14:37:22;;;;;;;16.33;2.88;;;;;;;;;;5073694;28;20031;-68
2024/03/23 14:40:08;;;;;;;10.18;1.92;;;;;;;;;;5057147;28;20032;-68
2024/03/23 14:42:56;;;;;;;9.00;2.35;;;;;;;;;;5076795;28;20032;-68
2024/03/23 14:46:08;;;;;;;15.25;2.30;;;;;;;;;;5092201;28;20111;-68
2024/03/23 14:48:54;;;;;;;15.98;1.90;;;;;;;;;;5077442;28;20043;-68
2024/03/23 14:51:39;;;;;;;8.98;1.35;;;;;;;;;;5092609;28;20053;-67
2024/03/23 14:54:25;;;;;;;6.63;1.40;;;;;;;;;;5079585;28;20525;-68
2024/03/23 14:57:12;;;;;;;8.55;2.75;;;;;;;;;;5075165;28;20516;-68
2024/03/23 14:59:57;;;;;;;4.00;1.50;;;;;;;;;;5074295;28;20024;-68
2024/03/23 15:02:43;;;;;;;11.95;2.33;;;;;;;;;;5090289;28;20024;-68
2024/03/23 15:05:31;;;;;;;13.13;2.13;;;;;;;;;;5093582;28;20032;-68
2024/03/23 15:08:16;;;;;;;12.50;3.05;;;;;;;;;;5075594;28;20566;-68
2024/03/23 15:11:05;;;;;;;8.60;2.13;;;;;;;;;;5072564;28;20413;-68
2024/03/23 15:13:50;;;;;;;9.90;2.28;;;;;;;;;;5079028;28;20507;-68
2024/03/23 15:16:37;;;;;;;7.57;2.17;;;;;;;;;;5070821;28;20561;-69
2024/03/23 15:19:22;;;;;;;10.90;2.63;;;;;;;;;;5070030;28;20024;-68
2024/03/23 15:22:08;;;;;;;13.35;2.40;;;;;;;;;;5072473;28;20024;-68
2024/03/23 15:24:54;;;;;;;8.40;1.85;;;;;;;;;;5058254;28;20020;-68
2024/03/23 15:27:40;;;;;;;10.20;2.80;;;;;;;;;;5074593;28;20512;-68
2024/03/23 15:30:26;;;;;;;11.10;2.20;;;;;;;;;;5071636;28;20127;-68
2024/03/23 15:33:12;;;;;;;12.07;2.53;;;;;;;;;;5071260;28;20482;-68
2024/03/23 15:36:06;;;;;;;13.38;2.65;;;;;;;;;;5072658;28;20425;-68
2024/03/23 15:38:54;;;;;;;11.00;2.45;;;;;;;;;;5071886;28;20017;-68
2024/03/23 15:41:40;;;;;;;13.35;2.35;;;;;;;;;;5062222;28;20093;-67
2024/03/23 15:44:26;;;;;;;9.75;2.33;;;;;;;;;;5093997;28;20028;-68
2024/03/23 15:47:11;;;;;;;24.38;3.58;;;;;;;;;;5091380;28;20054;-68
2024/03/23 15:49:57;;;;;;;11.32;2.90;;;;;;;;;;5077568;28;20043;-68
2024/03/23 15:52:43;;;;;;;15.05;2.67;;;;;;;;;;5077292;28;20081;-68
2024/03/23 15:55:28;;;;;;;10.27;3.05;;;;;;;;;;5089258;28;20048;-68
2024/03/23 15:58:16;;;;;;;12.25;2.72;;;;;;;;;;5091785;28;20149;-68
2024/03/23 16:01:08;;;;;;;9.68;2.55;;;;;;;;;;5096473;28;20111;-68
2024/03/23 16:03:54;;;;;;;8.38;2.05;;;;;;;;;;5092276;28;20134;-68
2024/03/23 16:06:41;;;;;;;15.15;2.78;;;;;;;;;;5076087;28;20056;-68
2024/03/23 16:09:28;;;;;;;15.88;2.35;;;;;;;;;;5076698;28;20493;-68
2024/03/23 16:12:14;;;;;;;15.57;2.47;;;;;;;;;;5084164;28;20016;-67
2024/03/23 16:15:00;;;;;;;19.63;2.30;;;;;;;;;;5086445;28;20107;-68
2024/03/23 16:17:45;;;;;;;16.10;3.92;;;;;;;;;;5090910;28;20020;-68
2024/03/23 16:20:33;;;;;;;18.88;3.10;;;;;;;;;;5091380;28;20031;-68
2024/03/23 16:23:19;;;;;;;15.70;3.13;;;;;;;;;;5076463;28;20020;-68
2024/03/23 16:26:05;;;;;;;10.73;2.50;;;;;;;;;;5091272;28;20024;-68
2024/03/23 16:28:50;;;;;;;13.15;3.70;;;;;;;;;;5088630;28;20366;-68